sensor_id;sensor_type;location;lat;lon;timestamp;temperature;humidity
35804;DHT22;21924;51.934;7.414;2024-03-23T06:35:33;6.10;99.90
35804;DHT22;21924;51.934;7.414;2024-03-23T06:38:29;6.00;99.90
35804;DHT22;21924;51.934;7.414;2024-03-23T06:41:23;5.90;99.90
35804;DHT22;21924;51.934;7.414;2024-03-23T06:47:31;5.90;99.90
35804;DHT22;21924;51.934;7.414;2024-03-23T06:53:38;6.00;99.90
35804;DHT22;21924;51.934;7.414;2024-03-23T07:03:34;6.20;99.90
35804;DHT22;21924;51.934;7.414;2024-03-23T07:06:34;6.20;99.90
35804;DHT22;21924;51.934;7.414;2024-03-23T07:09:33;6.30;99.90
35804;DHT22;21924;51.934;7.414;2024-03-23T07:12:17;6.30;99.90
35804;DHT22;21924;51.934;7.414;2024-03-23T07:18:25;6.30;99.90
35804;DHT22;21924;51.934;7.414;2024-03-23T07:25:00;6.40;99.90
35804;DHT22;21924;51.934;7.414;2024-03-23T07:38:08;6.60;99.90
35804;DHT22;21924;51.934;7.414;2024-03-23T07:41:37;6.90;99.90
35804;DHT22;21924;51.934;7.414;2024-03-23T07:44:39;7.10;99.90
35804;DHT22;21924;51.934;7.414;2024-03-23T07:47:42;7.10;99.90
35804;DHT22;21924;51.934;7.414;2024-03-23T07:50:26;7.00;99.90
35804;DHT22;21924;51.934;7.414;2024-03-23T07:56:40;7.40;99.90
35804;DHT22;21924;51.934;7.414;2024-03-23T07:59:33;7.40;99.90
35804;DHT22;21924;51.934;7.414;2024-03-23T08:02:39;7.40;99.90
35804;DHT22;21924;51.934;7.414;2024-03-23T08:08:46;7.50;99.90
35804;DHT22;21924;51.934;7.414;2024-03-23T08:11:35;7.50;99.90
35804;DHT22;21924;51.934;7.414;2024-03-23T08:17:48;7.50;99.90
35804;DHT22;21924;51.934;7.414;2024-03-23T08:20:33;7.60;99.90
35804;DHT22;21924;51.934;7.414;2024-03-23T08:23:25;7.90;99.90
35804;DHT22;21924;51.934;7.414;2024-03-23T08:30:37;7.90;99.90
35804;DHT22;21924;51.934;7.414;2024-03-23T08:33:33;7.90;99.90
35804;DHT22;21924;51.934;7.414;2024-03-23T08:36:29;8.00;99.90
35804;DHT22;21924;51.934;7.414;2024-03-23T08:40:06;8.00;99.90
35804;DHT22;21924;51.934;7.414;2024-03-23T08:42:56;7.80;99.90
35804;DHT22;21924;51.934;7.414;2024-03-23T08:45:45;7.70;99.90
35804;DHT22;21924;51.934;7.414;2024-03-23T08:48:46;7.70;99.90
35804;DHT22;21924;51.934;7.414;2024-03-23T08:59:07;8.00;99.90
35804;DHT22;21924;51.934;7.414;2024-03-23T09:02:03;8.10;99.90
35804;DHT22;21924;51.934;7.414;2024-03-23T09:05:40;8.20;99.90
35804;DHT22;21924;51.934;7.414;2024-03-23T09:09:06;8.20;99.90
35804;DHT22;21924;51.934;7.414;2024-03-23T09:21:40;8.20;99.90
35804;DHT22;21924;51.934;7.414;2024-03-23T09:24:33;7.90;99.90
35804;DHT22;21924;51.934;7.414;2024-03-23T09:27:21;7.60;99.90
35804;DHT22;21924;51.934;7.414;2024-03-23T09:30:09;7.40;99.90
35804;DHT22;21924;51.934;7.414;2024-03-23T09:32:57;7.20;99.90
35804;DHT22;21924;51.934;7.414;2024-03-23T09:35:53;7.20;99.90
35804;DHT22;21924;51.934;7.414;2024-03-23T09:38:41;7.00;99.90
35804;DHT22;21924;51.934;7.414;2024-03-23T09:41:25;7.30;99.90
35804;DHT22;21924;51.934;7.414;2024-03-23T09:44:09;7.50;99.90
35804;DHT22;21924;51.934;7.414;2024-03-23T09:46:53;7.70;99.90
35804;DHT22;21924;51.934;7.414;2024-03-23T09:49:39;8.00;99.90
35804;DHT22;21924;51.934;7.414;2024-03-23T09:52:32;8.20;99.90
35804;DHT22;21924;51.934;7.414;2024-03-23T09:55:16;8.20;99.90
35804;DHT22;21924;51.934;7.414;2024-03-23T09:58:02;8.20;99.90
35804;DHT22;21924;51.934;7.414;2024-03-23T10:00:47;8.40;99.90
35804;DHT22;21924;51.934;7.414;2024-03-23T10:03:31;8.70;99.90
35804;DHT22;21924;51.934;7.414;2024-03-23T10:06:15;8.80;99.90
35804;DHT22;21924;51.934;7.414;2024-03-23T10:09:20;9.10;99.90
35804;DHT22;21924;51.934;7.414;2024-03-23T10:12:09;8.90;99.90
35804;DHT22;21924;51.934;7.414;2024-03-23T10:14:55;8.80;99.90
35804;DHT22;21924;51.934;7.414;2024-03-23T10:17:39;8.40;99.90
35804;DHT22;21924;51.934;7.414;2024-03-23T10:20:25;8.30;99.90
35804;DHT22;21924;51.934;7.414;2024-03-23T10:23:18;8.40;99.90
35804;DHT22;21924;51.934;7.414;2024-03-23T10:29:07;8.70;99.90
35804;DHT22;21924;51.934;7.414;2024-03-23T10:32:10;8.90;99.90
35804;DHT22;21924;51.934;7.414;2024-03-23T10:34:55;9.20;99.90
35804;DHT22;21924;51.934;7.414;2024-03-23T10:37:39;9.30;99.90
35804;DHT22;21924;51.934;7.414;2024-03-23T10:40:57;9.50;99.90
35804;DHT22;21924;51.934;7.414;2024-03-23T10:43:39;9.40;99.90
35804;DHT22;21924;51.934;7.414;2024-03-23T10:46:24;9.10;99.90
35804;DHT22;21924;51.934;7.414;2024-03-23T10:49:08;9.20;99.90
35804;DHT22;21924;51.934;7.414;2024-03-23T10:51:52;9.40;99.90
35804;DHT22;21924;51.934;7.414;2024-03-23T10:54:37;9.60;99.90
35804;DHT22;21924;51.934;7.414;2024-03-23T10:57:23;9.80;99.90
35804;DHT22;21924;51.934;7.414;2024-03-23T11:00:11;9.90;99.90
35804;DHT22;21924;51.934;7.414;2024-03-23T11:02:59;10.20;99.90
35804;DHT22;21924;51.934;7.414;2024-03-23T11:06:06;10.00;99.90
35804;DHT22;21924;51.934;7.414;2024-03-23T11:08:52;9.00;99.90
35804;DHT22;21924;51.934;7.414;2024-03-23T11:15:10;7.80;99.90
35804;DHT22;21924;51.934;7.414;2024-03-23T11:24:56;7.00;99.90
35804;DHT22;21924;51.934;7.414;2024-03-23T11:34:06;7.20;99.90
35804;DHT22;21924;51.934;7.414;2024-03-23T11:37:04;7.40;99.90
35804;DHT22;21924;51.934;7.414;2024-03-23T11:40:11;7.50;99.90
35804;DHT22;21924;51.934;7.414;2024-03-23T11:43:11;7.70;99.90
35804;DHT22;21924;51.934;7.414;2024-03-23T11:48:59;8.70;99.90
35804;DHT22;21924;51.934;7.414;2024-03-23T11:51:44;9.00;99.90
35804;DHT22;21924;51.934;7.414;2024-03-23T11:54:31;9.10;99.90
35804;DHT22;21924;51.934;7.414;2024-03-23T12:04:03;10.00;99.90
35804;DHT22;21924;51.934;7.414;2024-03-23T12:17:20;9.40;99.90
35804;DHT22;21924;51.934;7.414;2024-03-23T12:20:48;9.40;99.90
35804;DHT22;21924;51.934;7.414;2024-03-23T12:24:11;9.30;99.90
35804;DHT22;21924;51.934;7.414;2024-03-23T12:26:57;8.90;99.90
35804;DHT22;21924;51.934;7.414;2024-03-23T12:29:52;8.40;99.90
35804;DHT22;21924;51.934;7.414;2024-03-23T12:32:56;8.40;99.90
35804;DHT22;21924;51.934;7.414;2024-03-23T12:35:40;8.90;99.90
35804;DHT22;21924;51.934;7.414;2024-03-23T12:38:29;9.30;99.90
35804;DHT22;21924;51.934;7.414;2024-03-23T12:41:13;9.60;99.90
35804;DHT22;21924;51.934;7.414;2024-03-23T12:43:57;10.10;99.90
35804;DHT22;21924;51.934;7.414;2024-03-23T12:46:42;10.00;99.90
35804;DHT22;21924;51.934;7.414;2024-03-23T12:49:27;10.20;99.90
35804;DHT22;21924;51.934;7.414;2024-03-23T12:52:19;10.30;99.90
35804;DHT22;21924;51.934;7.414;2024-03-23T12:55:45;10.50;99.90
35804;DHT22;21924;51.934;7.414;2024-03-23T12:58:29;11.10;99.90
35804;DHT22;21924;51.934;7.414;2024-03-23T13:01:13;11.30;99.90
35804;DHT22;21924;51.934;7.414;2024-03-23T13:03:57;11.40;99.90
35804;DHT22;21924;51.934;7.414;2024-03-23T13:06:44;11.30;99.90
35804;DHT22;21924;51.934;7.414;2024-03-23T13:09:52;11.10;99.90
35804;DHT22;21924;51.934;7.414;2024-03-23T13:12:37;10.90;99.90
35804;DHT22;21924;51.934;7.414;2024-03-23T13:15:21;10.70;99.90
35804;DHT22;21924;51.934;7.414;2024-03-23T13:18:06;10.60;99.90
35804;DHT22;21924;51.934;7.414;2024-03-23T13:20:55;10.50;99.90
35804;DHT22;21924;51.934;7.414;2024-03-23T13:23:41;10.00;99.90
35804;DHT22;21924;51.934;7.414;2024-03-23T13:26:26;9.50;99.90
35804;DHT22;21924;51.934;7.414;2024-03-23T13:29:10;9.00;99.90
35804;DHT22;21924;51.934;7.414;2024-03-23T13:32:13;8.70;99.90
35804;DHT22;21924;51.934;7.414;2024-03-23T13:34:57;8.30;99.90
35804;DHT22;21924;51.934;7.414;2024-03-23T13:38:01;8.10;99.90
35804;DHT22;21924;51.934;7.414;2024-03-23T13:41:10;8.00;99.90
35804;DHT22;21924;51.934;7.414;2024-03-23T13:57:20;8.00;99.90
35804;DHT22;21924;51.934;7.414;2024-03-23T14:00:14;8.10;99.90
35804;DHT22;21924;51.934;7.414;2024-03-23T14:03:15;8.30;99.90
35804;DHT22;21924;51.934;7.414;2024-03-23T14:06:15;8.40;99.90
35804;DHT22;21924;51.934;7.414;2024-03-23T14:09:15;8.40;99.90
35804;DHT22;21924;51.934;7.414;2024-03-23T14:19:31;8.50;99.90
35804;DHT22;21924;51.934;7.414;2024-03-23T14:22:16;8.50;99.90
35804;DHT22;21924;51.934;7.414;2024-03-23T14:25:04;8.70;99.90
35804;DHT22;21924;51.934;7.414;2024-03-23T14:27:55;9.00;99.90
35804;DHT22;21924;51.934;7.414;2024-03-23T14:30:40;9.10;99.90
35804;DHT22;21924;51.934;7.414;2024-03-23T14:33:24;9.00;99.90
35804;DHT22;21924;51.934;7.414;2024-03-23T14:36:09;8.90;99.90
35804;DHT22;21924;51.934;7.414;2024-03-23T14:38:53;8.90;99.90
35804;DHT22;21924;51.934;7.414;2024-03-23T14:41:38;8.80;99.90
35804;DHT22;21924;51.934;7.414;2024-03-23T14:44:22;8.80;99.90
35804;DHT22;21924;51.934;7.414;2024-03-23T14:47:06;9.10;99.90
35804;DHT22;21924;51.934;7.414;2024-03-23T14:49:50;9.30;99.90
35804;DHT22;21924;51.934;7.414;2024-03-23T14:52:35;9.50;99.90
35804;DHT22;21924;51.934;7.414;2024-03-23T14:55:19;9.30;99.90
35804;DHT22;21924;51.934;7.414;2024-03-23T14:58:03;9.10;99.90
35804;DHT22;21924;51.934;7.414;2024-03-23T15:00:48;8.80;99.90
35804;DHT22;21924;51.934;7.414;2024-03-23T15:03:32;8.60;99.90
35804;DHT22;21924;51.934;7.414;2024-03-23T15:06:19;8.60;99.90
35804;DHT22;21924;51.934;7.414;2024-03-23T15:09:04;8.40;99.90
35804;DHT22;21924;51.934;7.414;2024-03-23T15:11:54;8.00;99.90
35804;DHT22;21924;51.934;7.414;2024-03-23T15:18:24;7.50;99.90
35804;DHT22;21924;51.934;7.414;2024-03-23T15:21:39;7.50;99.90
35804;DHT22;21924;51.934;7.414;2024-03-23T15:31:11;8.00;99.90
35804;DHT22;21924;51.934;7.414;2024-03-23T15:33:55;8.40;99.90
35804;DHT22;21924;51.934;7.414;2024-03-23T15:40:01;8.80;99.90
35804;DHT22;21924;51.934;7.414;2024-03-23T15:42:55;8.80;99.90
35804;DHT22;21924;51.934;7.414;2024-03-23T15:45:44;8.70;99.90
35804;DHT22;21924;51.934;7.414;2024-03-23T15:48:50;8.60;99.90
35804;DHT22;21924;51.934;7.414;2024-03-23T15:51:44;8.40;99.90
35804;DHT22;21924;51.934;7.414;2024-03-23T15:54:34;8.50;99.90
35804;DHT22;21924;51.934;7.414;2024-03-23T15:57:18;8.40;99.90
35804;DHT22;21924;51.934;7.414;2024-03-23T16:00:11;8.30;99.90
35804;DHT22;21924;51.934;7.414;2024-03-23T16:02:55;8.20;99.90
35804;DHT22;21924;51.934;7.414;2024-03-23T16:05:39;8.20;99.90
35804;DHT22;21924;51.934;7.414;2024-03-23T16:08:31;8.20;99.90
35804;DHT22;21924;51.934;7.414;2024-03-23T16:11:15;8.30;99.90
35804;DHT22;21924;51.934;7.414;2024-03-23T16:14:14;8.50;99.90
35804;DHT22;21924;51.934;7.414;2024-03-23T16:16:59;9.00;99.90
35804;DHT22;21924;51.934;7.414;2024-03-23T16:19:44;9.90;99.90
35804;DHT22;21924;51.934;7.414;2024-03-23T16:22:35;10.40;99.90
35804;DHT22;21924;51.934;7.414;2024-03-23T16:25:20;10.20;99.90
35804;DHT22;21924;51.934;7.414;2024-03-23T16:28:05;9.60;99.90
35804;DHT22;21924;51.934;7.414;2024-03-23T16:34:21;8.50;99.90
35804;DHT22;21924;51.934;7.414;2024-03-23T16:37:11;8.10;99.90
35804;DHT22;21924;51.934;7.414;2024-03-23T16:40:32;7.80;99.90
35804;DHT22;21924;51.934;7.414;2024-03-23T16:43:42;7.60;99.90
35804;DHT22;21924;51.934;7.414;2024-03-23T16:46:32;7.50;99.90
35804;DHT22;21924;51.934;7.414;2024-03-23T16:52:38;7.40;99.90
35804;DHT22;21924;51.934;7.414;2024-03-23T16:59:30;7.00;99.90
35804;DHT22;21924;51.934;7.414;2024-03-23T17:05:22;6.90;99.90
35804;DHT22;21924;51.934;7.414;2024-03-23T17:08:07;6.70;99.90
35804;DHT22;21924;51.934;7.414;2024-03-23T17:10:57;6.50;99.90
35804;DHT22;21924;51.934;7.414;2024-03-23T17:13:41;6.50;99.90
35804;DHT22;21924;51.934;7.414;2024-03-23T17:16:38;6.40;99.90
35804;DHT22;21924;51.934;7.414;2024-03-23T17:19:27;6.30;99.90
35804;DHT22;21924;51.934;7.414;2024-03-23T17:22:14;6.40;99.90
35804;DHT22;21924;51.934;7.414;2024-03-23T17:25:54;6.30;99.90
35804;DHT22;21924;51.934;7.414;2024-03-23T17:28:40;6.20;99.90
35804;DHT22;21924;51.934;7.414;2024-03-23T17:31:24;6.20;99.90
35804;DHT22;21924;51.934;7.414;2024-03-23T17:34:18;6.10;99.90
35804;DHT22;21924;51.934;7.414;2024-03-23T17:37:25;6.10;99.90
35804;DHT22;21924;51.934;7.414;2024-03-23T17:41:00;6.00;99.90
35804;DHT22;21924;51.934;7.414;2024-03-23T17:43:45;5.90;99.90
35804;DHT22;21924;51.934;7.414;2024-03-23T17:46:37;5.80;99.90
35804;DHT22;21924;51.934;7.414;2024-03-23T17:49:26;5.80;99.90
35804;DHT22;21924;51.934;7.414;2024-03-23T17:52:11;5.60;99.90
35804;DHT22;21924;51.934;7.414;2024-03-23T17:55:22;5.50;99.90
35804;DHT22;21924;51.934;7.414;2024-03-23T18:02:11;5.30;99.90
35804;DHT22;21924;51.934;7.414;2024-03-23T18:05:04;5.20;99.90
35804;DHT22;21924;51.934;7.414;2024-03-23T18:07:50;5.10;99.90
35804;DHT22;21924;51.934;7.414;2024-03-23T18:10:40;5.00;99.90
35804;DHT22;21924;51.934;7.414;2024-03-23T18:13:27;4.90;99.90
35804;DHT22;21924;51.934;7.414;2024-03-23T18:16:15;4.80;99.90
35804;DHT22;21924;51.934;7.414;2024-03-23T18:19:00;4.80;99.90
35804;DHT22;21924;51.934;7.414;2024-03-23T18:21:46;4.70;99.90
35804;DHT22;21924;51.934;7.414;2024-03-23T18:24:41;4.70;99.90
35804;DHT22;21924;51.934;7.414;2024-03-23T18:27:25;4.60;99.90
35804;DHT22;21924;51.934;7.414;2024-03-23T18:30:11;4.60;99.90
35804;DHT22;21924;51.934;7.414;2024-03-23T18:32:57;4.60;99.90
35804;DHT22;21924;51.934;7.414;2024-03-23T18:35:42;4.50;99.90
35804;DHT22;21924;51.934;7.414;2024-03-23T18:41:54;4.40;99.90
35804;DHT22;21924;51.934;7.414;2024-03-23T18:44:42;4.30;99.90
35804;DHT22;21924;51.934;7.414;2024-03-23T18:47:32;4.30;99.90
35804;DHT22;21924;51.934;7.414;2024-03-23T19:06:50;4.30;99.90
35804;DHT22;21924;51.934;7.414;2024-03-23T19:09:35;4.30;99.90
35804;DHT22;21924;51.934;7.414;2024-03-23T19:12:25;4.30;99.90
35804;DHT22;21924;51.934;7.414;2024-03-23T19:15:10;4.30;99.90
35804;DHT22;21924;51.934;7.414;2024-03-23T19:17:57;4.30;99.90
35804;DHT22;21924;51.934;7.414;2024-03-23T19:20:43;4.30;99.90
35804;DHT22;21924;51.934;7.414;2024-03-23T19:23:34;4.30;99.90
35804;DHT22;21924;51.934;7.414;2024-03-23T19:26:26;4.40;99.90
35804;DHT22;21924;51.934;7.414;2024-03-23T19:29:12;4.30;99.90
35804;DHT22;21924;51.934;7.414;2024-03-23T19:31:56;4.30;99.90
35804;DHT22;21924;51.934;7.414;2024-03-23T19:34:41;4.20;99.90
35804;DHT22;21924;51.934;7.414;2024-03-23T19:37:33;4.10;99.90
35804;DHT22;21924;51.934;7.414;2024-03-23T19:43:33;4.00;99.90
35804;DHT22;21924;51.934;7.414;2024-03-23T19:46:26;4.00;99.90
35804;DHT22;21924;51.934;7.414;2024-03-23T19:55:41;3.90;99.90
35804;DHT22;21924;51.934;7.414;2024-03-23T20:05:29;3.80;99.90
35804;DHT22;21924;51.934;7.414;2024-03-23T20:08:17;3.70;99.90
35804;DHT22;21924;51.934;7.414;2024-03-23T20:11:51;3.70;99.90
35804;DHT22;21924;51.934;7.414;2024-03-23T20:14:41;3.70;99.90
35804;DHT22;21924;51.934;7.414;2024-03-23T20:17:34;3.70;99.90
35804;DHT22;21924;51.934;7.414;2024-03-23T20:28:00;3.70;99.90
35804;DHT22;21924;51.934;7.414;2024-03-23T20:30:54;3.70;99.90
35804;DHT22;21924;51.934;7.414;2024-03-23T20:37:02;3.80;99.90
35804;DHT22;21924;51.934;7.414;2024-03-23T20:40:41;3.70;99.90
35804;DHT22;21924;51.934;7.414;2024-03-23T20:43:28;3.90;99.90
35804;DHT22;21924;51.934;7.414;2024-03-23T20:52:57;4.10;99.90
35804;DHT22;21924;51.934;7.414;2024-03-23T21:05:56;4.00;99.90
35804;DHT22;21924;51.934;7.414;2024-03-23T21:08:58;4.00;99.90
35804;DHT22;21924;51.934;7.414;2024-03-23T21:11:52;4.00;99.90
35804;DHT22;21924;51.934;7.414;2024-03-23T21:14:52;4.10;99.90
35804;DHT22;21924;51.934;7.414;2024-03-23T21:17:41;4.10;99.90
35804;DHT22;21924;51.934;7.414;2024-03-23T21:20:38;4.10;99.90
35804;DHT22;21924;51.934;7.414;2024-03-23T21:23:58;4.10;99.90
35804;DHT22;21924;51.934;7.414;2024-03-23T21:26:57;4.20;99.90
35804;DHT22;21924;51.934;7.414;2024-03-23T21:30:00;4.10;99.90
35804;DHT22;21924;51.934;7.414;2024-03-23T21:32:45;4.10;99.90
35804;DHT22;21924;51.934;7.414;2024-03-23T21:35:30;4.10;99.90
35804;DHT22;21924;51.934;7.414;2024-03-23T21:38:15;4.00;99.90
35804;DHT22;21924;51.934;7.414;2024-03-23T21:41:31;4.00;99.90
35804;DHT22;21924;51.934;7.414;2024-03-23T21:50:51;3.90;99.90
35804;DHT22;21924;51.934;7.414;2024-03-23T22:05:03;3.80;99.90
35804;DHT22;21924;51.934;7.414;2024-03-23T22:11:17;3.80;99.90
35804;DHT22;21924;51.934;7.414;2024-03-23T22:20:54;3.80;99.90
35804;DHT22;21924;51.934;7.414;2024-03-23T22:23:50;3.70;99.90
35804;DHT22;21924;51.934;7.414;2024-03-23T22:27:00;3.70;99.90
35804;DHT22;21924;51.934;7.414;2024-03-23T22:30:12;3.60;99.90
35804;DHT22;21924;51.934;7.414;2024-03-23T22:33:58;3.50;99.90
35804;DHT22;21924;51.934;7.414;2024-03-23T22:36:48;3.50;99.90
35804;DHT22;21924;51.934;7.414;2024-03-23T22:39:33;3.50;99.90
35804;DHT22;21924;51.934;7.414;2024-03-23T22:42:20;3.50;99.90
35804;DHT22;21924;51.934;7.414;2024-03-23T22:48:52;3.40;99.90
35804;DHT22;21924;51.934;7.414;2024-03-23T22:52:08;3.40;99.90
35804;DHT22;21924;51.934;7.414;2024-03-23T22:54:53;3.30;99.90
35804;DHT22;21924;51.934;7.414;2024-03-23T22:57:37;3.40;99.90
35804;DHT22;21924;51.934;7.414;2024-03-23T23:00:50;3.40;99.90
35804;DHT22;21924;51.934;7.414;2024-03-23T23:03:35;3.30;99.90
35804;DHT22;21924;51.934;7.414;2024-03-23T23:07:01;3.30;99.90
35804;DHT22;21924;51.934;7.414;2024-03-23T23:09:50;3.30;99.90
35804;DHT22;21924;51.934;7.414;2024-03-23T23:12:56;3.30;99.90
35804;DHT22;21924;51.934;7.414;2024-03-23T23:18:16;3.40;99.90
35804;DHT22;21924;51.934;7.414;2024-03-23T23:21:02;3.50;99.90
35804;DHT22;21924;51.934;7.414;2024-03-23T23:27:10;3.70;99.90
35804;DHT22;21924;51.934;7.414;2024-03-23T23:30:09;3.70;99.90
35804;DHT22;21924;51.934;7.414;2024-03-23T23:32:54;3.70;99.90
35804;DHT22;21924;51.934;7.414;2024-03-23T23:35:57;3.70;99.90
35804;DHT22;21924;51.934;7.414;2024-03-23T23:46:00;3.70;99.90
35804;DHT22;21924;51.934;7.414;2024-03-23T23:48:56;3.70;99.90
35804;DHT22;21924;51.934;7.414;2024-03-23T23:52:01;3.60;99.90
35804;DHT22;21924;51.934;7.414;2024-03-23T23:55:23;3.70;99.90
35804;DHT22;21924;51.934;7.414;2024-03-23T23:59:15;3.60;99.90
